createdAt,value
2022-09-28T01:22:57.345Z,99136.97
2022-09-28T01:25:36.271Z,99153.00
2022-09-28T01:28:09.165Z,99179.13
2022-09-28T01:30:44.502Z,99136.66
2022-09-28T01:33:17.780Z,99150.34
2022-09-28T01:35:57.319Z,99162.56
2022-09-28T01:38:31.142Z,99169.44
2022-09-28T01:41:01.185Z,99155.78
2022-09-28T01:43:29.522Z,99124.19
2022-09-28T01:46:02.033Z,99146.53
2022-09-28T01:48:37.969Z,99112.94
2022-09-28T01:51:10.507Z,99152.72
2022-09-28T01:53:44.876Z,99148.09
2022-09-28T01:56:35.661Z,99175.19
2022-09-28T01:59:27.196Z,99154.97
2022-09-28T02:02:15.800Z,99144.84
2022-09-28T02:04:51.885Z,99145.81
2022-09-28T02:07:24.070Z,99136.38
2022-09-28T02:09:56.233Z,99096.06
2022-09-28T02:12:35.509Z,99143.56
2022-09-28T02:15:14.631Z,99142.44
2022-09-28T02:17:41.759Z,99112.81
2022-09-28T02:20:08.971Z,99142.59
2022-09-28T02:22:44.016Z,99128.22
2022-09-28T02:25:23.145Z,99158.72
2022-09-28T02:28:00.660Z,99109.38
2022-09-28T02:30:29.516Z,99089.19
2022-09-28T02:33:05.862Z,99098.44
2022-09-28T02:35:36.552Z,99129.38
2022-09-28T02:38:03.305Z,99102.66
2022-09-28T02:40:32.592Z,99149.44
2022-09-28T02:43:20.217Z,99142.31
2022-09-28T02:45:53.072Z,99149.19
2022-09-28T02:48:43.643Z,99146.53
2022-09-28T02:51:20.183Z,99126.41
2022-09-28T02:53:49.697Z,99141.03
2022-09-28T02:56:36.907Z,99133.28
2022-09-28T02:59:25.419Z,99133.03
2022-09-28T03:02:32.322Z,99138.94
2022-09-28T03:05:18.842Z,99123.19
2022-09-28T03:07:48.850Z,99128.38
2022-09-28T03:10:37.301Z,99095.34
2022-09-28T03:13:05.251Z,99105.34
2022-09-28T03:15:36.321Z,99118.06
2022-09-28T03:18:02.957Z,99106.53
2022-09-28T03:20:30.909Z,99114.63
2022-09-28T03:23:22.732Z,99100.59
2022-09-28T03:25:44.177Z,99099.16
2022-09-28T03:28:10.911Z,99070.94
2022-09-28T03:30:37.369Z,99123.03
2022-09-28T03:33:04.419Z,99119.47
2022-09-28T03:35:31.157Z,99076.22
2022-09-28T03:37:57.855Z,99115.56
2022-09-28T03:40:27.197Z,99098.66
2022-09-28T03:42:54.306Z,99081.47
2022-09-28T03:45:20.873Z,99068.28
2022-09-28T03:47:48.694Z,99102.31
2022-09-28T03:50:18.284Z,99064.06
2022-09-28T03:52:44.866Z,99058.16
2022-09-28T03:55:14.710Z,99076.94
2022-09-28T03:57:43.600Z,99041.94
2022-09-28T04:00:10.947Z,99086.59
2022-09-28T04:02:37.535Z,99054.75
2022-09-28T04:05:04.989Z,99034.00
2022-09-28T04:07:31.537Z,99052.50
2022-09-28T04:09:58.358Z,99059.88
2022-09-28T04:12:24.970Z,99084.34
2022-09-28T04:15:05.625Z,99067.38
2022-09-28T04:17:36.512Z,99065.59
2022-09-28T04:20:07.290Z,99072.28
2022-09-28T04:22:37.510Z,99066.66
2022-09-28T04:25:08.033Z,99069.91
2022-09-28T04:27:53.151Z,99047.03
2022-09-28T04:30:19.754Z,99046.78
2022-09-28T04:32:47.628Z,99064.00
2022-09-28T04:35:14.662Z,99074.13
2022-09-28T04:37:41.569Z,99024.69
2022-09-28T04:40:08.745Z,99073.84
2022-09-28T04:42:37.029Z,99048.41
2022-09-28T04:45:07.557Z,99035.53
2022-09-28T04:47:37.033Z,99051.91
2022-09-28T04:53:40.304Z,99048.13
2022-09-28T04:59:03.263Z,99034.34
2022-09-28T05:01:33.075Z,99048.69
2022-09-28T05:04:00.000Z,99029.59
2022-09-28T05:09:29.750Z,99048.28
2022-09-28T05:12:21.614Z,99057.66
2022-09-28T05:18:08.017Z,99060.06
2022-09-28T05:20:44.285Z,99046.44
2022-09-28T05:23:12.593Z,99063.16
2022-09-28T05:25:49.684Z,99053.59
2022-09-28T05:31:53.467Z,99026.50
2022-09-28T05:34:35.823Z,99035.91
2022-09-28T05:56:51.236Z,99087.78
2022-09-28T06:00:01.087Z,99066.41
2022-09-28T06:03:04.411Z,99031.44
2022-09-28T11:48:07.331Z,99092.81
2022-09-28T11:54:47.900Z,99030.25
2022-09-28T11:57:54.371Z,99099.00
2022-09-28T12:00:24.945Z,99058.75
2022-09-28T12:03:42.163Z,99096.09
2022-09-28T12:14:07.263Z,99051.31
2022-09-28T12:17:06.004Z,99061.56
2022-09-28T12:27:57.079Z,99080.34
2022-09-28T12:38:39.044Z,99081.44
2022-09-28T12:41:44.222Z,99087.97
2022-09-28T12:44:20.890Z,99056.78
2022-09-28T12:50:38.652Z,99076.91
2022-09-28T12:53:43.235Z,99089.19
2022-09-28T12:56:31.622Z,99039.16
2022-09-28T12:59:01.136Z,99092.06
2022-09-28T13:01:48.672Z,99068.97
2022-09-28T13:04:44.448Z,99069.44
2022-09-28T13:07:32.468Z,99081.69
2022-09-28T13:10:05.218Z,99087.13
2022-09-28T13:20:33.060Z,99099.69
2022-09-28T13:23:17.583Z,99093.47
2022-09-28T13:25:55.688Z,99090.63
2022-09-28T13:28:27.554Z,99077.31
2022-09-28T13:33:33.915Z,99074.16
2022-09-28T13:36:00.910Z,99071.38
2022-09-28T13:38:27.281Z,99099.13
2022-09-28T13:41:06.260Z,99096.53
2022-09-28T13:44:17.935Z,99081.56
2022-09-28T13:47:12.027Z,99099.09
2022-09-28T13:50:05.002Z,99103.47
2022-09-28T13:52:39.972Z,99111.88
2022-09-28T13:55:33.922Z,99109.66
2022-09-28T14:05:46.303Z,99112.19
2022-09-28T14:08:31.137Z,99101.56
2022-09-28T14:11:48.405Z,99080.00
2022-09-28T14:14:40.031Z,99121.06
2022-09-28T14:17:21.791Z,99107.50
2022-09-28T14:20:11.191Z,99125.31
2022-09-28T14:22:51.607Z,99102.09
2022-09-28T14:25:27.758Z,99078.19
2022-09-28T14:28:19.489Z,99098.81
2022-09-28T14:30:56.271Z,99079.88
2022-09-28T14:33:28.100Z,99125.16
2022-09-28T14:36:08.587Z,99116.25
2022-09-28T14:39:07.466Z,99132.63
2022-09-28T14:41:37.905Z,99139.81
2022-09-28T14:44:10.391Z,99131.38
2022-09-28T14:47:21.774Z,99094.06
2022-09-28T14:50:00.594Z,99134.34
2022-09-28T14:53:06.246Z,99109.41
2022-09-28T14:55:40.940Z,99135.03
2022-09-28T14:58:23.200Z,99149.41
2022-09-28T15:00:56.203Z,99116.81
2022-09-28T15:03:24.413Z,99119.75
2022-09-28T15:05:51.204Z,99133.69
2022-09-28T15:08:20.357Z,99144.63
2022-09-28T15:10:55.808Z,99126.56
2022-09-28T15:13:33.815Z,99078.81
2022-09-28T15:16:23.268Z,99114.66
2022-09-28T15:19:07.163Z,99143.59
2022-09-28T15:25:36.410Z,99129.50
2022-09-28T15:28:25.135Z,99098.97
2022-09-28T15:30:58.885Z,99134.91
2022-09-28T15:33:53.967Z,99135.59
2022-09-28T15:36:41.134Z,99144.34
2022-09-28T15:39:15.785Z,99123.47
2022-09-28T15:41:56.418Z,99158.34
2022-09-28T15:44:36.347Z,99149.03
2022-09-28T15:47:14.369Z,99177.44
2022-09-28T15:49:56.874Z,99150.47
2022-09-28T15:52:26.006Z,99147.59
2022-09-28T15:54:54.152Z,99139.63
2022-09-28T15:57:39.462Z,99157.91
2022-09-28T16:00:28.806Z,99136.53
2022-09-28T16:03:09.492Z,99164.88
2022-09-28T16:06:08.390Z,99171.81
2022-09-28T16:16:01.983Z,99179.66
2022-09-28T16:18:30.656Z,99188.84
2022-09-28T16:21:20.325Z,99171.31
2022-09-28T16:23:52.635Z,99156.50
2022-09-28T16:26:44.140Z,99190.38
2022-09-28T16:29:35.898Z,99186.47
2022-09-28T16:32:29.539Z,99215.00
2022-09-28T16:35:42.087Z,99224.25
2022-09-28T16:38:16.372Z,99193.19
2022-09-28T16:41:02.904Z,99212.97
2022-09-28T16:43:31.221Z,99229.00
2022-09-28T16:46:18.221Z,99232.63
2022-09-28T16:48:50.764Z,99177.84
2022-09-28T16:51:24.217Z,99179.06
2022-09-28T16:54:09.430Z,99207.19
2022-09-28T16:57:04.732Z,99196.25
2022-09-28T16:59:31.934Z,99196.34
2022-09-28T17:01:59.178Z,99243.50
2022-09-28T17:04:47.533Z,99246.16
2022-09-28T17:07:15.394Z,99227.28
2022-09-28T17:09:53.255Z,99207.50
2022-09-28T17:12:23.092Z,99201.88
2022-09-28T17:15:27.019Z,99220.16
2022-09-28T21:28:00.276Z,99432.28
2022-09-28T21:35:19.893Z,99438.81
2022-09-28T21:37:46.739Z,99422.63
2022-09-28T21:40:13.232Z,99446.91
2022-09-28T21:42:43.214Z,99387.63
2022-09-28T21:45:12.429Z,99407.41
2022-09-28T21:47:50.263Z,99396.19
2022-09-28T21:50:16.942Z,99426.25
2022-09-28T21:52:43.662Z,99398.34
2022-09-28T21:55:10.410Z,99407.03
2022-09-28T21:57:36.938Z,99451.59
2022-09-28T22:00:04.120Z,99398.25
2022-09-28T22:02:37.281Z,99405.34
2022-09-28T22:05:06.103Z,99394.41
2022-09-28T22:07:40.420Z,99399.47
2022-09-28T22:10:08.948Z,99433.53
2022-09-28T22:12:41.156Z,99423.94
2022-09-28T22:15:18.770Z,99441.03
2022-09-28T22:17:45.609Z,99421.06
2022-09-28T22:20:12.111Z,99448.03
2022-09-28T22:22:38.747Z,99396.34
2022-09-28T22:25:08.972Z,99403.91
2022-09-28T22:27:35.474Z,99408.09
2022-09-28T22:30:04.263Z,99438.16
2022-09-28T22:32:30.771Z,99448.97
2022-09-28T22:34:57.640Z,99404.91
2022-09-28T22:37:28.119Z,99421.34
2022-09-28T22:39:55.553Z,99416.50
2022-09-28T22:42:22.090Z,99444.06
2022-09-28T22:44:49.132Z,99454.81
2022-09-28T22:47:19.968Z,99434.63
2022-09-28T22:49:49.168Z,99430.78
2022-09-28T22:52:16.331Z,99416.13
2022-09-28T22:54:43.196Z,99412.50
2022-09-28T22:57:10.260Z,99417.56
2022-09-28T22:59:42.570Z,99434.13
2022-09-28T23:02:09.657Z,99420.78
2022-09-28T23:04:36.550Z,99475.09
2022-09-28T23:07:03.745Z,99412.28
2022-09-28T23:09:39.843Z,99443.34
2022-09-28T23:12:09.204Z,99414.03
2022-09-28T23:14:38.795Z,99409.66
2022-09-28T23:17:05.791Z,99459.72
2022-09-28T23:19:33.823Z,99448.28
2022-09-28T23:22:00.639Z,99458.81
2022-09-28T23:24:27.271Z,99480.59
2022-09-28T23:26:58.988Z,99448.13
2022-09-28T23:29:28.402Z,99458.03
2022-09-28T23:32:00.738Z,99418.47
2022-09-28T23:34:33.017Z,99435.09
2022-09-28T23:37:03.557Z,99431.88
2022-09-28T23:39:30.678Z,99441.03
2022-09-28T23:42:00.417Z,99408.97
2022-09-28T23:44:33.486Z,99439.47
2022-09-28T23:47:03.756Z,99455.72
2022-09-28T23:49:30.683Z,99453.31
2022-09-28T23:52:02.892Z,99445.16
2022-09-28T23:54:29.779Z,99440.19
2022-09-28T23:56:58.384Z,99469.50
2022-09-28T23:59:25.063Z,99463.84
